KTTD/TTD METAR and TAF weather

Enter ICAO airport designator
Station Type Date Time Source
KTTD METAR 2022/09/26 08:53 UTC NOAA

KTTD 260853Z AUTO 08013G20KT 10SM CLR 24/08 A2995 RMK AO2 SLP141 T02390083 58005


Station Type Date Time Source
KTTD Decoded METAR 2022/09/26 08:53 UTC NOAA

PORTLAND-TROUTDALE AIRPORT, OR, United States (KTTD) 45-33N 122-25W 14M
Sep 26, 2022 - 04:53 AM EDT / 2022.09.26 0853 UTC
Wind: from the E (080 degrees) at 15 MPH (13 KT) gusting to 23 MPH (20 KT):0
Visibility: 10 mile(s):0
Sky conditions: clear
Temperature: 75.0 F (23.9 C)
Dew Point: 46.9 F (8.3 C)
Relative Humidity: 36%
Pressure (altimeter): 29.95 in. Hg (1014 hPa)
Pressure tendency: 0.01 inches (0.5 hPa) lower than three hours ago
ob: KTTD 260853Z AUTO 08013G20KT 10SM CLR 24/08 A2995 RMK AO2 SLP141 T02390083 58005
cycle: 9

Station Type Date Time Source
KTTD TAF 2022/09/26 09:04 UTC NOAA

TAF
AMD KTTD 260901Z 2609/2706 09010G19KT P6SM FEW250
FM261300 09010KT P6SM FEW250
FM262000 VRB03KT P6SM FEW250

Example: see airport list